createdAt,value
2022-08-22T00:00:32.085Z,10.73
2022-08-22T00:02:43.110Z,6.57
2022-08-22T00:02:49.265Z,11.87
2022-08-22T00:06:01.044Z,11.87
2022-08-22T00:11:12.550Z,9.50
2022-08-22T00:16:29.216Z,10.87
2022-08-22T00:21:47.790Z,12.67
2022-08-22T00:27:19.060Z,10.67
2022-08-22T00:32:40.446Z,11.93
2022-08-22T00:38:06.350Z,12.40
2022-08-22T00:43:27.909Z,9.43
2022-08-22T00:48:57.764Z,11.70
2022-08-22T00:54:23.435Z,11.33
2022-08-22T00:59:35.116Z,11.33
2022-08-22T01:04:52.398Z,11.10
2022-08-22T01:10:29.196Z,15.00
2022-08-22T01:15:35.642Z,12.47
2022-08-22T01:21:12.477Z,13.33
2022-08-22T01:26:20.992Z,12.27
2022-08-22T01:31:42.700Z,13.03
2022-08-22T01:37:01.809Z,15.77
2022-08-22T01:42:41.806Z,12.27
2022-08-22T01:47:50.548Z,10.60
2022-08-22T01:53:09.267Z,11.93
2022-08-22T01:58:22.248Z,11.53
2022-08-22T02:03:33.450Z,13.40
2022-08-22T02:08:57.096Z,11.63
2022-08-22T02:14:46.614Z,10.63
2022-08-22T02:19:55.728Z,12.43
2022-08-22T02:25:10.542Z,12.27
2022-08-22T02:30:23.804Z,10.43
2022-08-22T02:35:39.940Z,15.40
2022-08-22T02:41:05.782Z,12.63
2022-08-22T02:46:47.757Z,10.67
2022-08-22T02:51:53.299Z,13.63
2022-08-22T02:57:47.199Z,11.73
2022-08-22T03:03:20.301Z,12.00
2022-08-22T03:09:00.608Z,11.77
2022-08-22T03:14:23.261Z,13.57
2022-08-22T03:19:52.999Z,12.60
2022-08-22T03:25:13.189Z,9.70
2022-08-22T03:30:35.017Z,11.67
2022-08-22T03:35:58.024Z,11.53
2022-08-22T03:41:19.438Z,12.07
2022-08-22T03:46:48.553Z,10.57
2022-08-22T03:52:06.236Z,11.50
2022-08-22T03:57:40.244Z,12.73
2022-08-22T04:03:00.892Z,15.67
2022-08-22T04:08:13.064Z,11.60
2022-08-22T04:13:43.541Z,10.47
2022-08-22T04:18:58.253Z,10.97
2022-08-22T04:24:25.773Z,15.40
2022-08-22T04:29:37.605Z,10.33
2022-08-22T04:34:49.018Z,12.77
2022-08-22T04:40:05.154Z,13.50
2022-08-22T04:45:27.505Z,9.83
2022-08-22T04:50:43.369Z,10.73
2022-08-22T04:55:46.213Z,10.87
2022-08-22T05:01:07.716Z,11.93
2022-08-22T05:06:11.805Z,13.90
2022-08-22T05:11:19.020Z,12.57
2022-08-22T05:16:26.769Z,13.80
2022-08-22T05:21:35.098Z,14.63
2022-08-22T05:26:44.886Z,15.43
2022-08-22T05:31:52.105Z,15.50
2022-08-22T05:37:35.346Z,16.73
2022-08-22T05:42:38.244Z,15.30
2022-08-22T05:47:45.705Z,14.40
2022-08-22T05:53:07.057Z,19.67
2022-08-22T05:58:43.783Z,21.30
2022-08-22T06:04:06.968Z,21.13
2022-08-22T06:09:44.351Z,22.00
2022-08-22T06:15:27.564Z,21.63
2022-08-22T06:21:02.406Z,26.10
2022-08-22T06:26:21.109Z,24.20
2022-08-22T06:31:41.718Z,24.97
2022-08-22T06:36:50.855Z,29.03
2022-08-22T06:42:16.752Z,20.60
2022-08-22T06:47:31.136Z,20.60
2022-08-22T06:52:38.525Z,19.13
2022-08-22T06:57:54.891Z,13.30
2022-08-22T07:03:21.316Z,12.87
2022-08-22T07:08:26.069Z,14.63
2022-08-22T07:13:30.166Z,14.07
2022-08-22T07:18:33.335Z,20.33
2022-08-22T07:23:40.831Z,14.10
2022-08-22T07:28:51.650Z,12.10
2022-08-22T07:34:39.476Z,12.13
2022-08-22T07:39:58.228Z,11.80
2022-08-22T07:45:28.386Z,14.03
2022-08-22T07:50:56.459Z,11.03
2022-08-22T07:56:04.424Z,11.07
2022-08-22T08:01:16.573Z,9.03
2022-08-22T08:06:23.314Z,9.67
2022-08-22T08:11:32.426Z,10.03
2022-08-22T08:16:44.709Z,12.50
2022-08-22T08:21:54.721Z,8.67
2022-08-22T08:27:23.224Z,9.03
2022-08-22T08:32:30.480Z,7.17
2022-08-22T08:38:20.015Z,11.20
2022-08-22T08:44:00.667Z,6.83
2022-08-22T08:49:39.599Z,6.47
2022-08-22T08:54:58.184Z,4.63
2022-08-22T09:00:31.078Z,6.47
2022-08-22T09:05:55.097Z,8.07
2022-08-22T09:11:31.773Z,6.00
2022-08-22T09:16:37.527Z,7.00
2022-08-22T09:21:59.778Z,32.87
2022-08-22T09:27:26.500Z,6.30
2022-08-22T09:32:56.905Z,5.03
2022-08-22T09:38:30.444Z,4.60
2022-08-22T09:43:55.092Z,8.27
2022-08-22T09:49:22.579Z,9.47
2022-08-22T09:54:46.418Z,5.23
2022-08-22T09:59:58.082Z,6.03
2022-08-22T10:05:41.193Z,6.17
2022-08-22T10:11:14.155Z,5.97
2022-08-22T10:16:27.429Z,7.87
2022-08-22T10:21:47.238Z,5.07
2022-08-22T10:27:03.936Z,7.33
2022-08-22T10:32:42.967Z,5.93
2022-08-22T10:38:00.135Z,6.57
2022-08-22T10:43:16.890Z,9.17
2022-08-22T10:48:34.620Z,5.57
2022-08-22T10:53:46.543Z,6.80
2022-08-22T10:58:56.406Z,6.73
2022-08-22T11:04:44.297Z,6.43
2022-08-22T11:10:01.553Z,7.33
2022-08-22T11:15:58.431Z,7.33
2022-08-22T11:21:31.722Z,5.87
2022-08-22T11:26:59.194Z,7.67
2022-08-22T11:32:21.265Z,7.23
2022-08-22T11:37:54.811Z,5.90
2022-08-22T11:43:23.487Z,8.73
2022-08-22T11:49:00.407Z,7.10
2022-08-22T11:54:09.384Z,7.47
2022-08-22T11:59:30.748Z,9.80
2022-08-22T12:04:42.664Z,7.67
2022-08-22T12:09:55.866Z,5.10
2022-08-22T12:15:17.289Z,10.07
2022-08-22T12:20:46.100Z,6.43
2022-08-22T12:26:10.814Z,10.33
2022-08-22T12:31:54.385Z,10.13
2022-08-22T12:37:15.852Z,13.37
2022-08-22T12:43:06.564Z,5.83
2022-08-22T12:48:18.190Z,7.13
2022-08-22T12:53:28.669Z,6.67
2022-08-22T12:58:59.425Z,5.73
2022-08-22T13:04:08.349Z,7.83
2022-08-22T13:09:19.989Z,4.83
2022-08-22T13:14:34.203Z,8.17
2022-08-22T13:19:51.584Z,9.23
2022-08-22T13:24:58.441Z,6.40
2022-08-22T13:30:30.745Z,7.57
2022-08-22T13:35:55.285Z,6.17
2022-08-22T13:40:59.547Z,9.07
2022-08-22T13:46:06.437Z,8.87
2022-08-22T13:51:24.663Z,4.40
2022-08-22T13:56:54.030Z,6.03
2022-08-22T14:02:23.366Z,6.80
2022-08-22T14:08:01.310Z,8.80
2022-08-22T14:13:36.784Z,9.07
2022-08-22T14:18:48.535Z,6.63
2022-08-22T14:24:00.264Z,5.60
2022-08-22T14:29:06.888Z,5.37
2022-08-22T14:34:15.849Z,5.30
2022-08-22T14:39:46.314Z,5.43
2022-08-22T14:45:13.527Z,4.97
2022-08-22T14:50:39.659Z,7.67
2022-08-22T14:55:55.617Z,6.07
2022-08-22T15:01:12.593Z,6.10
2022-08-22T15:06:47.868Z,2.97
2022-08-22T15:11:51.373Z,6.07
2022-08-22T15:17:03.153Z,6.43
2022-08-22T15:22:21.533Z,3.43
2022-08-22T15:27:32.164Z,5.47
2022-08-22T15:32:43.938Z,6.23
2022-08-22T15:38:05.581Z,4.87
2022-08-22T15:43:28.879Z,4.50
2022-08-22T15:48:39.313Z,6.20
2022-08-22T15:54:01.743Z,4.97
2022-08-22T15:59:26.417Z,9.93
2022-08-22T16:04:47.389Z,7.53
2022-08-22T16:09:54.095Z,4.97
2022-08-22T16:14:57.645Z,4.07
2022-08-22T16:20:09.984Z,6.17
2022-08-22T16:25:45.619Z,5.00
2022-08-22T16:30:49.216Z,7.93
2022-08-22T16:36:15.274Z,7.93
2022-08-22T16:41:37.507Z,6.17
2022-08-22T16:46:44.147Z,7.43
2022-08-22T16:52:21.093Z,6.43
2022-08-22T16:57:28.670Z,7.60
2022-08-22T17:02:50.443Z,9.17
2022-08-22T17:07:56.251Z,9.53
2022-08-22T17:12:59.063Z,6.13
2022-08-22T17:18:21.344Z,9.97
2022-08-22T17:23:56.411Z,6.63
2022-08-22T17:29:27.142Z,8.87
2022-08-22T17:34:59.542Z,9.07
2022-08-22T17:40:14.309Z,10.83
2022-08-22T17:45:41.734Z,9.97
2022-08-22T17:50:51.148Z,8.80
2022-08-22T17:56:05.884Z,13.37
2022-08-22T18:01:15.530Z,9.60
2022-08-22T18:06:30.121Z,9.77
2022-08-22T18:11:45.059Z,12.30
2022-08-22T18:16:52.264Z,7.13
2022-08-22T18:22:23.895Z,12.37
2022-08-22T18:27:56.871Z,9.53
2022-08-22T18:33:14.865Z,11.20
2022-08-22T18:38:48.973Z,9.23
2022-08-22T18:43:52.668Z,5.47
2022-08-22T18:49:14.710Z,8.03
2022-08-22T18:54:27.351Z,6.57
2022-08-22T18:59:47.062Z,11.30
2022-08-22T19:05:05.448Z,5.50
2022-08-22T19:10:20.807Z,5.67
2022-08-22T19:15:23.521Z,4.50
2022-08-22T19:20:57.383Z,4.63
2022-08-22T19:26:23.251Z,3.73
2022-08-22T19:31:53.573Z,4.50
2022-08-22T19:37:32.614Z,6.20
2022-08-22T19:42:38.309Z,4.90
2022-08-22T19:47:42.777Z,3.27
2022-08-22T19:52:54.504Z,6.70
2022-08-22T19:58:12.342Z,4.57
2022-08-22T20:03:32.490Z,4.37
2022-08-22T20:08:53.102Z,5.10
2022-08-22T20:14:30.273Z,6.50
2022-08-22T20:20:16.422Z,3.40
2022-08-22T20:25:42.643Z,4.30
2022-08-22T20:30:49.775Z,4.87
2022-08-22T20:35:56.627Z,3.73
2022-08-22T20:41:18.600Z,3.90
2022-08-22T20:46:55.067Z,4.73
2022-08-22T20:52:34.552Z,5.87
2022-08-22T20:57:46.549Z,4.97
2022-08-22T21:03:15.321Z,5.77
2022-08-22T21:08:26.597Z,4.30
2022-08-22T21:13:37.725Z,3.37
2022-08-22T21:18:46.040Z,4.97
2022-08-22T21:24:03.859Z,4.50
2022-08-22T21:29:21.326Z,4.03
2022-08-22T21:34:31.923Z,4.43
2022-08-22T21:39:53.075Z,5.60
2022-08-22T21:45:06.756Z,4.83
2022-08-22T21:50:09.464Z,5.27
2022-08-22T21:55:30.456Z,5.13
2022-08-22T22:00:45.910Z,4.77
2022-08-22T22:05:54.997Z,4.27
2022-08-22T22:11:00.697Z,5.77
2022-08-22T22:16:05.562Z,5.33
2022-08-22T22:21:08.949Z,4.00
2022-08-22T22:26:13.850Z,4.37
2022-08-22T22:31:18.468Z,7.30
2022-08-22T22:36:24.765Z,7.10
2022-08-22T22:41:27.501Z,4.77
2022-08-22T22:46:30.791Z,5.50
2022-08-22T22:51:33.573Z,5.33
2022-08-22T22:56:36.343Z,6.40
2022-08-22T23:02:23.133Z,6.77
2022-08-22T23:07:27.869Z,9.87
2022-08-22T23:12:30.621Z,6.47
2022-08-22T23:17:33.760Z,5.03
2022-08-22T23:22:36.602Z,6.23
2022-08-22T23:27:39.869Z,5.30
2022-08-22T23:32:42.694Z,5.47
2022-08-22T23:37:45.495Z,4.97
2022-08-22T23:42:48.356Z,5.97
2022-08-22T23:47:51.124Z,7.93
2022-08-22T23:52:53.865Z,6.53
2022-08-22T23:57:58.162Z,5.57
